Mandan, ND

11:00 AM CDT on March 25, 2017 (GMT -0500)
Mandan

Weather History for KY19 - October, 2013

Change the Weather History Date:

Sunday, October 13, 2013

  Actual Average (KBIS) Record (KBIS)
Temperature  
Mean Temperature 42 °F -  
Max Temperature 51 °F 58 °F 89 °F (1958)
Min Temperature 32 °F 33 °F 8 °F (1909)
Degree Days  
Heating Degree Days 24    
Moisture  
Dew Point 34 °F    
Average Humidity 79    
Maximum Humidity 93    
Minimum Humidity 54    
Precipitation  
Precipitation 0.01 in - - ()
Sea Level Pressure  
Sea Level Pressure 30.29 in    
Wind  
Wind Speed 6 mph (ESE)    
Max Wind Speed 17 mph    
Max Gust Speed 23 mph    
Visibility 10 miles    
Events Rain    
Averages and records for this station are not official NWS values.
T = Trace of Precipitation, MM = Missing Value Source: NWS Daily Summary

Daily Weather History Graph

Daily Weather History Graph

Search for Another Location

Airport or City:

Trip Planner

Search our weather history database for the weather conditions in past years. The results will help you decide how hot, cold, wet, or windy it might be!

Date:

Astronomy

Oct. 13, 2013 Rise Set
Actual Time 7:58 AM CDT 6:59 PM CDT
Civil Twilight 7:28 AM CDT 7:30 PM CDT
Nautical Twilight 6:53 AM CDT 8:05 PM CDT
Astronomical Twilight 6:18 AM CDT 8:40 PM CDT
Moon 4:09 PM CDT (10/13) 1:51 AM CDT (10/13)
Length of Visible Light 12h 01m
Length of Day
11h 00m
Waxing Gibbous, 69% of the Moon is Illuminated
Oct 13
Waxing Gibbous
Oct 18
Full
Oct 26
Last Quarter
Nov 3
New
Nov 9
First Quarter

Hourly Weather History & Observations

Time (CDT) Temp. Windchill Dew Point Humidity Pressure Visibility Wind Dir Wind Speed Gust Speed Precip Events Conditions
12:15 AM 37.4 °F 32.1 °F 32.0 °F 81% 30.23 in 10.0 mi WSW 6.9 mph - N/A   Clear
12:35 AM 35.6 °F 30.7 °F 30.2 °F 81% 30.24 in 10.0 mi WSW 5.8 mph - N/A   Clear
12:55 AM 35.6 °F 30.7 °F 30.2 °F 81% 30.24 in 10.0 mi WSW 5.8 mph - N/A   Clear
1:15 AM 35.6 °F 30.7 °F 30.2 °F 81% 30.25 in 10.0 mi West 5.8 mph - N/A   Clear
1:35 AM 35.6 °F 31.7 °F 30.2 °F 81% 30.25 in 10.0 mi West 4.6 mph - N/A   Clear
1:55 AM 33.8 °F 29.6 °F 28.4 °F 81% 30.26 in 10.0 mi West 4.6 mph - N/A   Clear
2:15 AM 32.0 °F 27.5 °F 28.4 °F 87% 30.26 in 10.0 mi West 4.6 mph - N/A   Clear
2:35 AM 33.8 °F 29.6 °F 28.4 °F 81% 30.27 in 10.0 mi WNW 4.6 mph - N/A   Clear
2:55 AM 33.8 °F 30.8 °F 28.4 °F 81% 30.26 in 10.0 mi WNW 3.5 mph - N/A   Clear
3:15 AM 35.6 °F - 28.4 °F 75% 30.27 in 10.0 mi Calm Calm - N/A   Clear
3:35 AM 33.8 °F 30.8 °F 28.4 °F 81% 30.27 in 10.0 mi WNW 3.5 mph - N/A   Clear
3:55 AM 32.0 °F 27.5 °F 28.4 °F 87% 30.27 in 10.0 mi West 4.6 mph - N/A   Clear
4:15 AM 32.0 °F 27.5 °F 28.4 °F 87% 30.27 in 10.0 mi West 4.6 mph - N/A   Clear
4:35 AM 32.0 °F 26.4 °F 28.4 °F 87% 30.28 in 10.0 mi WSW 5.8 mph - N/A   Clear
4:55 AM 32.0 °F 26.4 °F 28.4 °F 87% 30.28 in 10.0 mi West 5.8 mph - N/A   Clear
5:15 AM 32.0 °F 28.7 °F 28.4 °F 87% 30.29 in 10.0 mi WNW 3.5 mph - N/A   Clear
5:35 AM 33.8 °F 30.8 °F 28.4 °F 81% 30.29 in 10.0 mi NW 3.5 mph - N/A   Clear
5:55 AM 33.8 °F - 28.4 °F 81% 30.30 in 10.0 mi Calm Calm - N/A   Clear
6:15 AM 32.0 °F 28.7 °F 28.4 °F 87% 30.30 in 10.0 mi SSE 3.5 mph - N/A   Clear
6:35 AM 32.0 °F - 28.4 °F 87% 30.31 in 10.0 mi Calm Calm - N/A   Clear
6:55 AM 32.0 °F 25.6 °F 28.4 °F 87% 30.32 in 10.0 mi SW 6.9 mph - N/A   Clear
7:15 AM 32.0 °F - 28.4 °F 87% 30.32 in 10.0 mi Calm Calm - N/A   Clear
7:35 AM 32.0 °F 27.5 °F 28.4 °F 87% 30.32 in 10.0 mi South 4.6 mph - N/A   Clear
7:55 AM 32.0 °F - 28.4 °F 87% 30.32 in 10.0 mi Calm Calm - N/A   Clear
8:15 AM 33.8 °F 30.8 °F 28.4 °F 81% 30.32 in 10.0 mi SSE 3.5 mph - N/A   Clear
8:35 AM 33.8 °F 30.8 °F 28.4 °F 81% 30.32 in 10.0 mi ESE 3.5 mph - N/A   Clear
8:55 AM 32.0 °F 27.5 °F 28.4 °F 87% 30.33 in 10.0 mi SSE 4.6 mph - N/A   Clear
9:15 AM 32.0 °F 27.5 °F 30.2 °F 93% 30.33 in 10.0 mi SE 4.6 mph - N/A   Clear
9:35 AM 35.6 °F 31.7 °F 32.0 °F 87% 30.33 in 10.0 mi East 4.6 mph - N/A   Clear
9:55 AM 35.6 °F 31.7 °F 32.0 °F 87% 30.33 in 10.0 mi East 4.6 mph - N/A   Clear
10:15 AM 35.6 °F 31.7 °F 32.0 °F 87% 30.33 in 10.0 mi ESE 4.6 mph - N/A   Clear
10:55 AM 39.2 °F 37.0 °F 33.8 °F 81% 30.34 in 10.0 mi East 3.5 mph - N/A   Clear
11:15 AM 39.2 °F 37.0 °F 33.8 °F 81% 30.34 in 10.0 mi SE 3.5 mph - N/A   Clear
11:35 AM 42.8 °F 40.1 °F 35.6 °F 76% 30.34 in 10.0 mi ESE 4.6 mph - N/A   Clear
11:55 AM 44.6 °F 40.7 °F 33.8 °F 66% 30.34 in 10.0 mi SE 6.9 mph - N/A   Clear
12:15 PM 46.4 °F 44.3 °F 35.6 °F 66% 30.34 in 10.0 mi ESE 4.6 mph - N/A   Clear
12:35 PM 46.4 °F 44.3 °F 35.6 °F 66% 30.34 in 10.0 mi East 4.6 mph - N/A   Clear
12:55 PM 48.2 °F - 35.6 °F 62% 30.34 in 10.0 mi SE 3.5 mph - N/A   Clear
1:15 PM 48.2 °F - 35.6 °F 62% 30.33 in 10.0 mi SE 4.6 mph - N/A   Clear
1:35 PM 50.0 °F - 35.6 °F 58% 30.32 in 10.0 mi SE 5.8 mph - N/A   Partly Cloudy
1:55 PM 50.0 °F - 37.4 °F 62% 30.32 in 10.0 mi ESE 5.8 mph - N/A   Mostly Cloudy
2:15 PM 50.0 °F - 37.4 °F 62% 30.31 in 10.0 mi ESE 9.2 mph - N/A   Overcast
2:35 PM 51.8 °F - 35.6 °F 54% 30.30 in 10.0 mi SE 9.2 mph - N/A   Overcast
2:55 PM 50.0 °F - 33.8 °F 54% 30.30 in 10.0 mi ESE 11.5 mph - N/A   Overcast
3:15 PM 51.8 °F - 35.6 °F 54% 30.29 in 10.0 mi ESE 15.0 mph - N/A   Mostly Cloudy
3:35 PM 50.0 °F - 35.6 °F 58% 30.28 in 10.0 mi SE 12.7 mph 16.1 mph N/A   Mostly Cloudy
3:55 PM 51.8 °F - 35.6 °F 54% 30.27 in 10.0 mi ESE 10.4 mph - N/A   Overcast
4:15 PM 50.0 °F - 35.6 °F 58% 30.27 in 10.0 mi ESE 13.8 mph - N/A   Overcast
4:35 PM 48.2 °F - 37.4 °F 66% 30.27 in 10.0 mi SE 12.7 mph 17.3 mph N/A   Overcast
4:55 PM 46.4 °F 41.5 °F 39.2 °F 76% 30.27 in 5.0 mi East 10.4 mph - N/A Rain Light Rain
5:15 PM 44.6 °F 39.7 °F 39.2 °F 81% 30.27 in 3.0 mi East 9.2 mph - N/A Rain Light Rain
5:35 PM 44.6 °F 41.4 °F 39.2 °F 81% 30.27 in 10.0 mi East 5.8 mph - 0.01 in   Mostly Cloudy
5:55 PM 44.6 °F 40.7 °F 41.0 °F 87% 30.27 in 10.0 mi East 6.9 mph - 0.01 in   Overcast
6:15 PM 44.6 °F 40.2 °F 39.2 °F 81% 30.27 in 10.0 mi ESE 8.1 mph - N/A   Overcast
6:35 PM 46.4 °F 41.5 °F 39.2 °F 76% 30.27 in 10.0 mi East 10.4 mph - N/A   Overcast
6:55 PM 44.6 °F 39.2 °F 39.2 °F 81% 30.27 in 7.0 mi East 10.4 mph - N/A Rain Light Rain
7:15 PM 44.6 °F 39.2 °F 39.2 °F 81% 30.27 in 10.0 mi ESE 10.4 mph - N/A Rain Light Rain
7:35 PM 44.6 °F 39.7 °F 39.2 °F 81% 30.26 in 10.0 mi East 9.2 mph - N/A   Overcast
7:55 PM 44.6 °F 39.7 °F 39.2 °F 81% 30.27 in 10.0 mi East 9.2 mph - N/A   Overcast
8:15 PM 44.6 °F 39.2 °F 39.2 °F 81% 30.27 in 10.0 mi East 10.4 mph - N/A   Overcast
8:35 PM 42.8 °F 37.0 °F 39.2 °F 87% 30.27 in 10.0 mi East 10.4 mph - N/A   Overcast
8:55 PM 42.8 °F 36.2 °F 39.2 °F 87% 30.27 in 10.0 mi East 12.7 mph - N/A   Overcast
9:15 PM 42.8 °F 36.6 °F 39.2 °F 87% 30.27 in 10.0 mi East 11.5 mph - N/A   Overcast
9:35 PM 42.8 °F 36.6 °F 39.2 °F 87% 30.27 in 10.0 mi ENE 11.5 mph - N/A Rain Light Rain
9:55 PM 42.8 °F 35.8 °F 39.2 °F 87% 30.26 in 10.0 mi ENE 13.8 mph - N/A Rain Light Rain
10:15 PM 42.8 °F 35.8 °F 39.2 °F 87% 30.26 in 10.0 mi East 13.8 mph - N/A Rain Light Rain
10:35 PM 42.8 °F 35.8 °F 39.2 °F 87% 30.26 in 10.0 mi East 13.8 mph - N/A   Overcast
10:55 PM 42.8 °F 37.0 °F 39.2 °F 87% 30.26 in 10.0 mi East 10.4 mph - N/A   Overcast
11:15 PM 42.8 °F 35.8 °F 39.2 °F 87% 30.25 in 10.0 mi East 13.8 mph - N/A   Overcast
11:35 PM 42.8 °F 36.2 °F 39.2 °F 87% 30.25 in 10.0 mi East 12.7 mph - N/A Rain Light Rain
11:55 PM 44.6 °F 37.2 °F 39.2 °F 81% 30.23 in 10.0 mi East 17.3 mph 23.0 mph N/A   Overcast